東京/成田 の空港の天気 - METARとTAF

新東京国際空港 ( RJAA / NRT ) - 千葉県成田市
飛行場実況気象(Metar)
観測時間09/25 12:30 JST (09/25 03:30 UTC)
風向・風速北北東 6m/s
視程5000m
天気現象弱いしゅう雨 もや
少しの雲 雲底高度 180m
全天の8割程度の雲 雲底高度 300m
全天の8割程度の雲 雲底高度 910m
気温21℃
湿度94%
気圧1014hPa
METARRJAA 250330Z 03012KT 5000 -SHRA BR FEW006 BKN010 BKN030 21/20 Q1014 TEMPO 4000 SHRA BR FEW005 BKN008 RMK 1ST006 5CU010 7CU030 A2994
過去の天気等 Google飛行場航空写真 Wunderground天気予報

過去48時間のMETAR

飛行場予報(TAF)
発表時間: 9/25 08:05 JST (9/24 23:05 UTC)
予報対象時間: 25日9時 JST ~ 26日15時 JST
風向・風速北東 5m/s
視程6000m
天気現象弱いしゅう雨
少しの雲 雲底高度 240m
全天の8割程度の雲 雲底高度 460m
25日9時 JST ~ 25日15時 JST に一時的に
視程3000m
天気現象しゅう雨 もや
少しの雲 雲底高度 30m
全天の8割程度の雲 雲底高度 90m
26日3時 JST ~ 26日9時 JST に一時的に
視程4000m
天気現象弱いしゅう雨 もや
少しの雲 雲底高度 150m
全天の8割程度の雲 雲底高度 240m
26日9時 JST ~ 26日15時 JST に一時的に
視程3000m
天気現象しゅう雨 もや
少しの雲 雲底高度 90m
全天の8割程度の雲 雲底高度 150m
TAF RJAA 242305Z 2500/2606 04010KT 6000 -SHRA FEW008 BKN015
TEMPO 2500/2506 3000 SHRA BR FEW001 BKN003
TEMPO 2518/2600 4000 -SHRA BR FEW005 BKN008
TEMPO 2600/2606 3000 SHRA BR FEW003 BKN005
日本の空港のMETAR・TAFへのリンク

RJTT 東京国際空港
RJAA 新東京国際空港
RJBB 関西国際空港
RJOO 大阪空港
RJGG 中部国際空港
RJCC 新千歳空港
RJFF 福岡空港
ROAH 那覇空港


RJEC 旭川空港
RJCH 函館空港
RJCK 釧路空港
RJCM 女満別空港
RJCB 帯広空港
RJSA 青森空港
RJSS 仙台空港
RJSK 秋田空港
RJSF 福島空港
RJAH 茨城空港
RJSN 新潟空港
RJNT 富山空港
RJNK 小松飛行場
RJNS 静岡空港
RJOH 美保飛行場
RJOC 出雲空港
RJOB 岡山空港
RJOA 広島空港
RJOI 岩国飛行場
RJOT 高松空港
RJOM 松山空港
RJOK 高知空港
RJFR 北九州空港
RJFT 熊本空港
RJFU 長崎空港
RJFS 佐賀空港
RJFO 大分空港
RJFM 宮崎空港
RJFK 鹿児島空港
ROIG 石垣島空港
RJTY 横田飛行場
ROTM 普天間飛行場
RODN 嘉手納飛行場